LFLBLFLC

Guest
Details From LFLB - Aix-Les-Bains
To LFLC - Clermont-Ferrand_Auvergne
Flight Number -
Tags decoded
Created
Modified
Stats Distance 115 nm / 213 km
Max Altitude 0 ft / 0 m
Waypoints 4
Social Downloads 2
Likes 0
Share

Download

Looking for another format? Having issues loading an existing format? Contact us
Advertisement - Login to hide

Notes

Requested: LFLB MEBAK Q20 SOPAD LFLC

Route

LFLB MEBAK Q20 SOPAD LFLC

ID Type Via Altitude (ft/m) Position (lat/lon) Dist (leg/tot) Name
O LFLB APT - 0 / 0 45.63623 / 5.88090 - / 0 nm Aix-Les-Bains
MEBAK FIX - 0 / 0 45.70806 / 4.64889 51 / 51 nm
SOPAD FIX Q20 (AWY-LO) 0 / 0 45.65333 / 4.20556 18 / 70 nm
O LFLC APT - 0 / 0 45.78671 / 3.16997 44 / 114 nm Clermont-Ferrand_Auvergne

Altitude Profile

Advertisement - Login to hide

LFLB

Details ICAO LFLB (CMF)
Name Chambery Aix-les-Bains
Region France
Timezone Europe/Paris (UTC+1.0)
Stats Elevation 777 ft / 237 m (AMSL)
Location 45.636500° 5.880840°
Runways 2
Magnetic Variation 2.034° E

METAR

LFLB 300330Z AUTO VRB02KT 2600 0550 R18/4000D R36/2600D BCFG NSC 05/05 Q1027 TEMPO 0400 FG BKN006

Decode

TAF

TAF LFLB 300200Z 3003/3103 18005KT CAVOK TEMPO 3003/3008 2000 BR PROB40 TEMPO 3003/3008 0400 FG BKN006 BECMG 3009/3011 36005KT BECMG 3017/3019 18005KT PROB40 TEMPO 3021/3103 0400 FG VV///

Decode

Departure Runways

ID Width Length Bearing (true/mag) Surface Threshold Overrun Markings Lighting
18 148 ft / 45 m 6,636 ft / 2,023 m 176.75° / 174.72° ASPHALT 764 ft / 233 m 0 ft / 0 m PREC-APP EDGE THRESHOLD MALSF
18L 177 ft / 54 m 2,289 ft / 698 m 176.75° / 174.71° GRASS 0 ft / 0 m 0 ft / 0 m NONE
36 148 ft / 45 m 6,636 ft / 2,023 m 356.76° / 354.72° ASPHALT 453 ft / 138 m 0 ft / 0 m PREC-APP EDGE THRESHOLD
36R 177 ft / 54 m 2,289 ft / 698 m 356.75° / 354.71° GRASS 318 ft / 97 m 0 ft / 0 m NONE

LFLC

Details ICAO LFLC (CFE)
Name Clermont-Ferrand_Auvergne
Region France
Timezone Europe/Paris (UTC+1.0)
Stats Elevation 1,089 ft / 332 m (AMSL)
Location 45.786700° 3.169970°
Runways 1
Magnetic Variation 1.334° E

METAR

LFLC 300330Z AUTO 14004KT 050V190 CAVOK 08/06 Q1026 TEMPO 0400 FG

Decode

TAF

TAF LFLC 292300Z 3000/3024 VRB03KT CAVOK TEMPO 3003/3008 2000 BR PROB30 TEMPO 3005/3008 0400 FG

Decode

Destination Runways

ID Width Length Bearing (true/mag) Surface Threshold Overrun Markings Lighting
08 148 ft / 45 m 9,878 ft / 3,011 m 81.95° / 80.62° ASPHALT 0 ft / 0 m 0 ft / 0 m UK-PREC-APP CENTERLINE EDGE THRESHOLD REIL-OMNI
26 148 ft / 45 m 9,878 ft / 3,011 m 261.98° / 260.65° ASPHALT 476 ft / 145 m 0 ft / 0 m UK-PREC-APP CENTERLINE EDGE THRESHOLD CALVERT-ILS TDZ REIL-OMNI

Approach Navaids

Runway Type Ident Frequency Range Bearing (true/mag) Slope Elevation
26 DME CF 111.10 MHz 27 nm / 50 km - - 1,089 ft / 332 m (AMSL)
26 LOC-ILS CF 111.10 MHz 18 nm / 33 km 261.98° / 260.65 ° - 1,089 ft / 332 m (AMSL)
26 GS CF 111.10 MHz 10 nm / 19 km 262.96° / 261.63 ° 3.00° 1,089 ft / 332 m (AMSL)

Popular Alternatives